sensor_id;sensor_type;location;lat;lon;timestamp;P1;durP1;ratioP1;P2;durP2;ratioP2
15931;SDS011;8065;49.520;11.284;2023-07-28T00:00:17;6.37;;;5.40;;
15931;SDS011;8065;49.520;11.284;2023-07-28T00:02:48;7.40;;;5.70;;
15931;SDS011;8065;49.520;11.284;2023-07-28T00:05:16;5.50;;;5.00;;
15931;SDS011;8065;49.520;11.284;2023-07-28T00:07:45;6.43;;;5.60;;
15931;SDS011;8065;49.520;11.284;2023-07-28T00:10:13;6.07;;;5.30;;
15931;SDS011;8065;49.520;11.284;2023-07-28T00:12:41;6.10;;;5.47;;
15931;SDS011;8065;49.520;11.284;2023-07-28T00:15:09;7.23;;;5.27;;
15931;SDS011;8065;49.520;11.284;2023-07-28T00:17:38;5.73;;;4.93;;
15931;SDS011;8065;49.520;11.284;2023-07-28T00:20:11;5.90;;;5.30;;
15931;SDS011;8065;49.520;11.284;2023-07-28T00:22:39;6.20;;;5.10;;
15931;SDS011;8065;49.520;11.284;2023-07-28T00:25:08;5.90;;;5.30;;
15931;SDS011;8065;49.520;11.284;2023-07-28T00:27:36;5.87;;;5.37;;
15931;SDS011;8065;49.520;11.284;2023-07-28T00:30:05;5.70;;;5.03;;
15931;SDS011;8065;49.520;11.284;2023-07-28T00:32:34;5.77;;;4.80;;
15931;SDS011;8065;49.520;11.284;2023-07-28T00:35:02;5.80;;;5.30;;
15931;SDS011;8065;49.520;11.284;2023-07-28T00:37:34;5.63;;;5.00;;
15931;SDS011;8065;49.520;11.284;2023-07-28T00:40:02;7.00;;;5.50;;
15931;SDS011;8065;49.520;11.284;2023-07-28T00:42:31;6.03;;;5.43;;
15931;SDS011;8065;49.520;11.284;2023-07-28T00:44:59;5.67;;;5.00;;
15931;SDS011;8065;49.520;11.284;2023-07-28T00:47:27;5.80;;;5.17;;
15931;SDS011;8065;49.520;11.284;2023-07-28T00:49:56;5.30;;;4.80;;
15931;SDS011;8065;49.520;11.284;2023-07-28T00:52:24;6.43;;;5.00;;
15931;SDS011;8065;49.520;11.284;2023-07-28T00:54:55;5.03;;;4.63;;
15931;SDS011;8065;49.520;11.284;2023-07-28T00:57:24;7.80;;;5.27;;
15931;SDS011;8065;49.520;11.284;2023-07-28T00:59:52;5.10;;;4.60;;
15931;SDS011;8065;49.520;11.284;2023-07-28T01:02:20;7.50;;;5.37;;
15931;SDS011;8065;49.520;11.284;2023-07-28T01:04:49;5.30;;;4.80;;
15931;SDS011;8065;49.520;11.284;2023-07-28T01:07:20;5.53;;;4.67;;
15931;SDS011;8065;49.520;11.284;2023-07-28T01:10:00;5.83;;;5.30;;
15931;SDS011;8065;49.520;11.284;2023-07-28T01:12:30;5.50;;;5.00;;
15931;SDS011;8065;49.520;11.284;2023-07-28T01:14:59;5.00;;;4.60;;
15931;SDS011;8065;49.520;11.284;2023-07-28T01:17:27;5.43;;;4.93;;
15931;SDS011;8065;49.520;11.284;2023-07-28T01:19:56;6.03;;;4.63;;
15931;SDS011;8065;49.520;11.284;2023-07-28T01:22:33;5.80;;;5.10;;
15931;SDS011;8065;49.520;11.284;2023-07-28T01:25:18;5.40;;;4.90;;
15931;SDS011;8065;49.520;11.284;2023-07-28T01:27:52;5.30;;;4.80;;
15931;SDS011;8065;49.520;11.284;2023-07-28T01:30:22;5.63;;;5.00;;
15931;SDS011;8065;49.520;11.284;2023-07-28T01:32:53;5.80;;;5.27;;
15931;SDS011;8065;49.520;11.284;2023-07-28T01:38:26;5.50;;;4.97;;
15931;SDS011;8065;49.520;11.284;2023-07-28T01:40:55;6.83;;;5.43;;
15931;SDS011;8065;49.520;11.284;2023-07-28T01:43:26;6.93;;;5.23;;
15931;SDS011;8065;49.520;11.284;2023-07-28T01:45:54;6.03;;;5.50;;
15931;SDS011;8065;49.520;11.284;2023-07-28T01:48:23;6.30;;;5.03;;
15931;SDS011;8065;49.520;11.284;2023-07-28T01:50:51;5.73;;;5.23;;
15931;SDS011;8065;49.520;11.284;2023-07-28T01:53:19;5.30;;;4.80;;
15931;SDS011;8065;49.520;11.284;2023-07-28T01:55:47;6.13;;;5.30;;
15931;SDS011;8065;49.520;11.284;2023-07-28T01:58:16;6.73;;;4.87;;
15931;SDS011;8065;49.520;11.284;2023-07-28T02:00:46;5.47;;;4.70;;
15931;SDS011;8065;49.520;11.284;2023-07-28T02:03:15;7.00;;;4.80;;
15931;SDS011;8065;49.520;11.284;2023-07-28T02:05:43;7.37;;;4.90;;
15931;SDS011;8065;49.520;11.284;2023-07-28T02:08:12;6.17;;;5.60;;
15931;SDS011;8065;49.520;11.284;2023-07-28T02:10:40;5.50;;;5.00;;
15931;SDS011;8065;49.520;11.284;2023-07-28T02:13:08;5.60;;;5.00;;
15931;SDS011;8065;49.520;11.284;2023-07-28T02:15:37;5.60;;;5.00;;
15931;SDS011;8065;49.520;11.284;2023-07-28T02:18:07;6.53;;;5.70;;
15931;SDS011;8065;49.520;11.284;2023-07-28T02:20:36;5.67;;;5.17;;
15931;SDS011;8065;49.520;11.284;2023-07-28T02:23:04;5.77;;;5.13;;
15931;SDS011;8065;49.520;11.284;2023-07-28T02:25:33;6.60;;;5.87;;
15931;SDS011;8065;49.520;11.284;2023-07-28T02:28:01;6.57;;;5.10;;
15931;SDS011;8065;49.520;11.284;2023-07-28T02:30:29;6.83;;;5.07;;
15931;SDS011;8065;49.520;11.284;2023-07-28T02:32:57;5.50;;;5.00;;
15931;SDS011;8065;49.520;11.284;2023-07-28T02:35:28;5.83;;;5.23;;
15931;SDS011;8065;49.520;11.284;2023-07-28T02:37:57;6.43;;;5.20;;
15931;SDS011;8065;49.520;11.284;2023-07-28T02:40:25;7.60;;;5.90;;
15931;SDS011;8065;49.520;11.284;2023-07-28T02:42:53;6.00;;;5.40;;
15931;SDS011;8065;49.520;11.284;2023-07-28T02:45:22;6.13;;;5.53;;
15931;SDS011;8065;49.520;11.284;2023-07-28T02:47:50;5.70;;;5.20;;
15931;SDS011;8065;49.520;11.284;2023-07-28T02:50:18;5.40;;;4.77;;
15931;SDS011;8065;49.520;11.284;2023-07-28T02:52:50;5.77;;;5.27;;
15931;SDS011;8065;49.520;11.284;2023-07-28T02:55:19;6.50;;;5.03;;
15931;SDS011;8065;49.520;11.284;2023-07-28T02:57:47;5.97;;;5.37;;
15931;SDS011;8065;49.520;11.284;2023-07-28T03:00:15;4.40;;;4.10;;
15931;SDS011;8065;49.520;11.284;2023-07-28T03:02:44;5.13;;;4.63;;
15931;SDS011;8065;49.520;11.284;2023-07-28T03:05:12;3.97;;;3.67;;
15931;SDS011;8065;49.520;11.284;2023-07-28T03:07:40;4.97;;;4.47;;
15931;SDS011;8065;49.520;11.284;2023-07-28T03:10:11;5.40;;;4.90;;
15931;SDS011;8065;49.520;11.284;2023-07-28T03:12:41;4.63;;;4.23;;
15931;SDS011;8065;49.520;11.284;2023-07-28T03:15:09;4.97;;;4.47;;
15931;SDS011;8065;49.520;11.284;2023-07-28T03:17:38;5.10;;;4.57;;
15931;SDS011;8065;49.520;11.284;2023-07-28T03:20:06;5.53;;;4.80;;
15931;SDS011;8065;49.520;11.284;2023-07-28T03:22:35;5.93;;;4.90;;
15931;SDS011;8065;49.520;11.284;2023-07-28T03:25:04;6.00;;;5.40;;
15931;SDS011;8065;49.520;11.284;2023-07-28T03:27:35;6.43;;;4.97;;
15931;SDS011;8065;49.520;11.284;2023-07-28T03:30:04;6.03;;;4.90;;
15931;SDS011;8065;49.520;11.284;2023-07-28T03:32:35;6.93;;;5.40;;
15931;SDS011;8065;49.520;11.284;2023-07-28T03:35:04;5.70;;;5.20;;
15931;SDS011;8065;49.520;11.284;2023-07-28T03:37:34;6.17;;;5.57;;
15931;SDS011;8065;49.520;11.284;2023-07-28T03:40:02;6.10;;;5.53;;
15931;SDS011;8065;49.520;11.284;2023-07-28T03:42:31;5.87;;;5.00;;
15931;SDS011;8065;49.520;11.284;2023-07-28T03:45:02;6.10;;;5.23;;
15931;SDS011;8065;49.520;11.284;2023-07-28T03:47:31;5.37;;;4.97;;
15931;SDS011;8065;49.520;11.284;2023-07-28T03:49:59;5.27;;;4.70;;
15931;SDS011;8065;49.520;11.284;2023-07-28T03:52:27;6.00;;;5.40;;
15931;SDS011;8065;49.520;11.284;2023-07-28T03:54:56;5.50;;;5.03;;
15931;SDS011;8065;49.520;11.284;2023-07-28T03:57:25;8.17;;;5.57;;
15931;SDS011;8065;49.520;11.284;2023-07-28T03:59:53;6.30;;;5.70;;
15931;SDS011;8065;49.520;11.284;2023-07-28T04:02:24;5.87;;;5.27;;
15931;SDS011;8065;49.520;11.284;2023-07-28T04:04:53;6.33;;;5.37;;
15931;SDS011;8065;49.520;11.284;2023-07-28T04:07:22;5.43;;;4.93;;
15931;SDS011;8065;49.520;11.284;2023-07-28T04:09:50;5.87;;;5.37;;
15931;SDS011;8065;49.520;11.284;2023-07-28T04:12:19;6.03;;;5.43;;
15931;SDS011;8065;49.520;11.284;2023-07-28T04:14:47;6.37;;;5.83;;
15931;SDS011;8065;49.520;11.284;2023-07-28T04:17:15;5.57;;;5.07;;
15931;SDS011;8065;49.520;11.284;2023-07-28T04:19:46;7.60;;;5.60;;
15931;SDS011;8065;49.520;11.284;2023-07-28T04:22:15;6.20;;;5.60;;
15931;SDS011;8065;49.520;11.284;2023-07-28T04:24:46;5.93;;;5.43;;
15931;SDS011;8065;49.520;11.284;2023-07-28T04:27:15;5.27;;;4.87;;
15931;SDS011;8065;49.520;11.284;2023-07-28T04:29:43;5.83;;;5.10;;
15931;SDS011;8065;49.520;11.284;2023-07-28T04:32:11;5.37;;;4.87;;
15931;SDS011;8065;49.520;11.284;2023-07-28T04:34:40;6.17;;;5.67;;
15931;SDS011;8065;49.520;11.284;2023-07-28T04:37:10;6.50;;;5.80;;
15931;SDS011;8065;49.520;11.284;2023-07-28T04:39:39;5.83;;;5.33;;
15931;SDS011;8065;49.520;11.284;2023-07-28T04:42:07;6.10;;;5.60;;
15931;SDS011;8065;49.520;11.284;2023-07-28T04:44:36;6.77;;;6.17;;
15931;SDS011;8065;49.520;11.284;2023-07-28T04:47:05;6.47;;;5.87;;
15931;SDS011;8065;49.520;11.284;2023-07-28T04:49:34;7.53;;;6.70;;
15931;SDS011;8065;49.520;11.284;2023-07-28T04:52:02;6.93;;;6.33;;
15931;SDS011;8065;49.520;11.284;2023-07-28T04:54:34;6.53;;;6.03;;
15931;SDS011;8065;49.520;11.284;2023-07-28T04:57:02;6.30;;;5.80;;
15931;SDS011;8065;49.520;11.284;2023-07-28T04:59:31;6.97;;;6.37;;
15931;SDS011;8065;49.520;11.284;2023-07-28T05:01:59;7.30;;;6.60;;
15931;SDS011;8065;49.520;11.284;2023-07-28T05:04:27;6.60;;;6.00;;
15931;SDS011;8065;49.520;11.284;2023-07-28T05:06:56;5.67;;;5.17;;
15931;SDS011;8065;49.520;11.284;2023-07-28T05:09:24;6.70;;;6.10;;
15931;SDS011;8065;49.520;11.284;2023-07-28T05:11:55;6.17;;;5.67;;
15931;SDS011;8065;49.520;11.284;2023-07-28T05:14:24;6.03;;;5.47;;
15931;SDS011;8065;49.520;11.284;2023-07-28T05:16:52;6.57;;;5.80;;
15931;SDS011;8065;49.520;11.284;2023-07-28T05:19:20;7.07;;;6.30;;
15931;SDS011;8065;49.520;11.284;2023-07-28T05:21:49;6.90;;;6.20;;
15931;SDS011;8065;49.520;11.284;2023-07-28T05:24:17;7.13;;;6.53;;
15931;SDS011;8065;49.520;11.284;2023-07-28T05:26:45;6.50;;;5.90;;
15931;SDS011;8065;49.520;11.284;2023-07-28T05:29:16;6.90;;;5.93;;
15931;SDS011;8065;49.520;11.284;2023-07-28T05:31:45;7.20;;;6.50;;
15931;SDS011;8065;49.520;11.284;2023-07-28T05:34:13;7.03;;;6.30;;
15931;SDS011;8065;49.520;11.284;2023-07-28T05:36:42;7.47;;;6.13;;
15931;SDS011;8065;49.520;11.284;2023-07-28T05:39:11;6.53;;;5.93;;
15931;SDS011;8065;49.520;11.284;2023-07-28T05:41:39;6.83;;;6.23;;
15931;SDS011;8065;49.520;11.284;2023-07-28T05:44:07;6.00;;;5.50;;
15931;SDS011;8065;49.520;11.284;2023-07-28T05:46:38;8.43;;;6.17;;
15931;SDS011;8065;49.520;11.284;2023-07-28T05:49:07;7.07;;;6.17;;
15931;SDS011;8065;49.520;11.284;2023-07-28T05:51:35;5.90;;;5.40;;
15931;SDS011;8065;49.520;11.284;2023-07-28T05:54:03;6.53;;;5.77;;
15931;SDS011;8065;49.520;11.284;2023-07-28T05:56:32;6.37;;;5.77;;
15931;SDS011;8065;49.520;11.284;2023-07-28T05:59:00;6.07;;;5.47;;
15931;SDS011;8065;49.520;11.284;2023-07-28T06:01:28;6.27;;;5.70;;
15931;SDS011;8065;49.520;11.284;2023-07-28T06:04:00;6.77;;;6.07;;
15931;SDS011;8065;49.520;11.284;2023-07-28T06:06:28;6.83;;;6.23;;
15931;SDS011;8065;49.520;11.284;2023-07-28T06:08:57;7.23;;;6.33;;
15931;SDS011;8065;49.520;11.284;2023-07-28T06:11:27;6.83;;;6.23;;
15931;SDS011;8065;49.520;11.284;2023-07-28T06:13:56;7.03;;;6.37;;
15931;SDS011;8065;49.520;11.284;2023-07-28T06:16:24;6.03;;;5.53;;
15931;SDS011;8065;49.520;11.284;2023-07-28T06:18:52;6.63;;;5.93;;
15931;SDS011;8065;49.520;11.284;2023-07-28T06:21:23;6.00;;;5.40;;
15931;SDS011;8065;49.520;11.284;2023-07-28T06:23:52;6.67;;;5.40;;
15931;SDS011;8065;49.520;11.284;2023-07-28T06:26:20;6.23;;;5.63;;
15931;SDS011;8065;49.520;11.284;2023-07-28T06:28:48;6.37;;;5.77;;
15931;SDS011;8065;49.520;11.284;2023-07-28T06:31:16;6.07;;;5.50;;
15931;SDS011;8065;49.520;11.284;2023-07-28T06:33:46;7.23;;;5.70;;
15931;SDS011;8065;49.520;11.284;2023-07-28T06:36:14;5.90;;;5.40;;
15931;SDS011;8065;49.520;11.284;2023-07-28T06:38:45;6.47;;;5.50;;
15931;SDS011;8065;49.520;11.284;2023-07-28T06:41:15;7.53;;;5.57;;
15931;SDS011;8065;49.520;11.284;2023-07-28T06:43:43;5.83;;;5.33;;
15931;SDS011;8065;49.520;11.284;2023-07-28T06:46:13;7.60;;;6.23;;
15931;SDS011;8065;49.520;11.284;2023-07-28T06:48:42;6.47;;;5.77;;
15931;SDS011;8065;49.520;11.284;2023-07-28T06:51:10;6.03;;;5.53;;
15931;SDS011;8065;49.520;11.284;2023-07-28T06:53:39;6.13;;;5.53;;
15931;SDS011;8065;49.520;11.284;2023-07-28T06:56:10;6.40;;;5.77;;
15931;SDS011;8065;49.520;11.284;2023-07-28T06:58:38;6.00;;;5.50;;
15931;SDS011;8065;49.520;11.284;2023-07-28T07:01:06;5.87;;;5.30;;
15931;SDS011;8065;49.520;11.284;2023-07-28T07:03:36;7.07;;;6.00;;
15931;SDS011;8065;49.520;11.284;2023-07-28T07:06:04;6.53;;;5.90;;
15931;SDS011;8065;49.520;11.284;2023-07-28T07:08:32;5.63;;;5.13;;
15931;SDS011;8065;49.520;11.284;2023-07-28T07:11:00;7.53;;;5.73;;
15931;SDS011;8065;49.520;11.284;2023-07-28T07:13:33;6.63;;;5.80;;
15931;SDS011;8065;49.520;11.284;2023-07-28T07:16:01;7.30;;;5.93;;
15931;SDS011;8065;49.520;11.284;2023-07-28T07:18:31;7.10;;;6.40;;
15931;SDS011;8065;49.520;11.284;2023-07-28T07:21:01;7.53;;;6.43;;
15931;SDS011;8065;49.520;11.284;2023-07-28T07:23:31;10.27;;;6.17;;
15931;SDS011;8065;49.520;11.284;2023-07-28T07:25:59;6.23;;;5.63;;
15931;SDS011;8065;49.520;11.284;2023-07-28T07:28:27;7.20;;;6.50;;
15931;SDS011;8065;49.520;11.284;2023-07-28T07:30:58;6.50;;;5.90;;
15931;SDS011;8065;49.520;11.284;2023-07-28T07:33:26;5.30;;;4.87;;
15931;SDS011;8065;49.520;11.284;2023-07-28T07:35:55;4.40;;;4.10;;
15931;SDS011;8065;49.520;11.284;2023-07-28T07:38:23;4.60;;;4.20;;
15931;SDS011;8065;49.520;11.284;2023-07-28T07:40:51;4.83;;;4.20;;
15931;SDS011;8065;49.520;11.284;2023-07-28T07:43:20;4.30;;;3.90;;
15931;SDS011;8065;49.520;11.284;2023-07-28T07:45:48;4.63;;;4.33;;
15931;SDS011;8065;49.520;11.284;2023-07-28T07:48:21;4.53;;;4.13;;
15931;SDS011;8065;49.520;11.284;2023-07-28T07:50:50;4.83;;;4.40;;
15931;SDS011;8065;49.520;11.284;2023-07-28T07:53:19;8.20;;;4.80;;
15931;SDS011;8065;49.520;11.284;2023-07-28T07:55:47;5.37;;;4.87;;
15931;SDS011;8065;49.520;11.284;2023-07-28T07:58:16;7.93;;;5.87;;
15931;SDS011;8065;49.520;11.284;2023-07-28T08:00:45;6.47;;;5.10;;
15931;SDS011;8065;49.520;11.284;2023-07-28T08:03:14;6.00;;;5.43;;
15931;SDS011;8065;49.520;11.284;2023-07-28T08:05:45;6.03;;;5.50;;
15931;SDS011;8065;49.520;11.284;2023-07-28T08:08:13;6.37;;;5.70;;
15931;SDS011;8065;49.520;11.284;2023-07-28T08:10:42;6.53;;;5.93;;
15931;SDS011;8065;49.520;11.284;2023-07-28T08:13:10;7.33;;;5.77;;
15931;SDS011;8065;49.520;11.284;2023-07-28T08:15:39;6.13;;;5.53;;
15931;SDS011;8065;49.520;11.284;2023-07-28T08:18:07;6.80;;;5.30;;
15931;SDS011;8065;49.520;11.284;2023-07-28T08:20:35;8.57;;;7.73;;
15931;SDS011;8065;49.520;11.284;2023-07-28T08:23:06;8.33;;;7.43;;
15931;SDS011;8065;49.520;11.284;2023-07-28T08:25:35;8.87;;;8.07;;
15931;SDS011;8065;49.520;11.284;2023-07-28T08:28:04;7.20;;;6.57;;
15931;SDS011;8065;49.520;11.284;2023-07-28T08:30:32;7.40;;;6.57;;
15931;SDS011;8065;49.520;11.284;2023-07-28T08:33:01;6.60;;;5.90;;
15931;SDS011;8065;49.520;11.284;2023-07-28T08:35:29;6.70;;;5.97;;
15931;SDS011;8065;49.520;11.284;2023-07-28T08:37:57;8.43;;;6.93;;
15931;SDS011;8065;49.520;11.284;2023-07-28T08:40:28;7.10;;;6.50;;
15931;SDS011;8065;49.520;11.284;2023-07-28T08:42:57;7.63;;;6.83;;
15931;SDS011;8065;49.520;11.284;2023-07-28T08:45:25;7.60;;;6.77;;
15931;SDS011;8065;49.520;11.284;2023-07-28T08:47:53;7.50;;;5.90;;
15931;SDS011;8065;49.520;11.284;2023-07-28T08:50:22;7.03;;;6.40;;
15931;SDS011;8065;49.520;11.284;2023-07-28T08:52:50;6.10;;;5.60;;
15931;SDS011;8065;49.520;11.284;2023-07-28T08:55:19;7.30;;;6.67;;
15931;SDS011;8065;49.520;11.284;2023-07-28T08:57:50;6.70;;;6.10;;
15931;SDS011;8065;49.520;11.284;2023-07-28T09:00:19;6.63;;;6.10;;
15931;SDS011;8065;49.520;11.284;2023-07-28T09:02:48;7.80;;;6.87;;
15931;SDS011;8065;49.520;11.284;2023-07-28T09:05:18;7.37;;;6.47;;
15931;SDS011;8065;49.520;11.284;2023-07-28T09:07:49;6.50;;;5.80;;
15931;SDS011;8065;49.520;11.284;2023-07-28T09:10:17;7.27;;;5.90;;
15931;SDS011;8065;49.520;11.284;2023-07-28T09:12:46;6.07;;;5.47;;
15931;SDS011;8065;49.520;11.284;2023-07-28T09:15:18;6.80;;;6.10;;
15931;SDS011;8065;49.520;11.284;2023-07-28T09:17:46;5.73;;;5.17;;
15931;SDS011;8065;49.520;11.284;2023-07-28T09:20:15;5.77;;;5.27;;
15931;SDS011;8065;49.520;11.284;2023-07-28T09:22:44;5.90;;;5.13;;
15931;SDS011;8065;49.520;11.284;2023-07-28T09:25:13;5.77;;;5.27;;
15931;SDS011;8065;49.520;11.284;2023-07-28T09:27:49;5.73;;;5.17;;
15931;SDS011;8065;49.520;11.284;2023-07-28T09:30:20;5.83;;;5.33;;
15931;SDS011;8065;49.520;11.284;2023-07-28T09:32:49;5.30;;;4.90;;
15931;SDS011;8065;49.520;11.284;2023-07-28T09:35:19;6.10;;;5.50;;
15931;SDS011;8065;49.520;11.284;2023-07-28T09:37:49;5.20;;;4.70;;
15931;SDS011;8065;49.520;11.284;2023-07-28T09:40:19;5.23;;;4.77;;
15931;SDS011;8065;49.520;11.284;2023-07-28T09:42:49;4.73;;;4.37;;
15931;SDS011;8065;49.520;11.284;2023-07-28T09:45:22;4.87;;;4.47;;
15931;SDS011;8065;49.520;11.284;2023-07-28T09:47:51;4.27;;;3.87;;
15931;SDS011;8065;49.520;11.284;2023-07-28T09:50:25;4.07;;;3.77;;
15931;SDS011;8065;49.520;11.284;2023-07-28T09:52:55;4.37;;;3.93;;
15931;SDS011;8065;49.520;11.284;2023-07-28T09:55:28;4.27;;;3.67;;
15931;SDS011;8065;49.520;11.284;2023-07-28T09:57:57;4.10;;;3.70;;
15931;SDS011;8065;49.520;11.284;2023-07-28T10:00:32;3.40;;;3.20;;
15931;SDS011;8065;49.520;11.284;2023-07-28T10:03:02;4.33;;;4.00;;
15931;SDS011;8065;49.520;11.284;2023-07-28T10:05:31;4.33;;;3.63;;
15931;SDS011;8065;49.520;11.284;2023-07-28T10:08:01;4.13;;;3.80;;
15931;SDS011;8065;49.520;11.284;2023-07-28T10:10:31;4.17;;;3.87;;
15931;SDS011;8065;49.520;11.284;2023-07-28T10:13:00;4.10;;;3.80;;
15931;SDS011;8065;49.520;11.284;2023-07-28T10:15:31;3.53;;;3.33;;
15931;SDS011;8065;49.520;11.284;2023-07-28T10:18:02;3.20;;;3.00;;
15931;SDS011;8065;49.520;11.284;2023-07-28T10:20:35;3.30;;;3.10;;
15931;SDS011;8065;49.520;11.284;2023-07-28T10:23:06;4.00;;;3.67;;
15931;SDS011;8065;49.520;11.284;2023-07-28T10:25:35;3.17;;;2.97;;
15931;SDS011;8065;49.520;11.284;2023-07-28T10:28:06;3.40;;;3.20;;
15931;SDS011;8065;49.520;11.284;2023-07-28T10:30:40;3.10;;;2.90;;
15931;SDS011;8065;49.520;11.284;2023-07-28T10:33:29;2.87;;;2.70;;
15931;SDS011;8065;49.520;11.284;2023-07-28T10:35:58;2.50;;;2.40;;
15931;SDS011;8065;49.520;11.284;2023-07-28T10:38:27;2.60;;;2.50;;
15931;SDS011;8065;49.520;11.284;2023-07-28T10:43:45;2.17;;;2.00;;
15931;SDS011;8065;49.520;11.284;2023-07-28T10:46:17;2.40;;;2.30;;
15931;SDS011;8065;49.520;11.284;2023-07-28T10:48:47;2.10;;;1.90;;
15931;SDS011;8065;49.520;11.284;2023-07-28T10:51:20;1.87;;;1.77;;
15931;SDS011;8065;49.520;11.284;2023-07-28T10:53:50;2.33;;;1.97;;
15931;SDS011;8065;49.520;11.284;2023-07-28T10:56:18;2.00;;;1.90;;
15931;SDS011;8065;49.520;11.284;2023-07-28T10:58:50;1.90;;;1.70;;
15931;SDS011;8065;49.520;11.284;2023-07-28T11:01:27;3.60;;;1.70;;
15931;SDS011;8065;49.520;11.284;2023-07-28T11:04:05;1.90;;;1.80;;
15931;SDS011;8065;49.520;11.284;2023-07-28T11:06:34;2.00;;;1.90;;
15931;SDS011;8065;49.520;11.284;2023-07-28T11:09:05;1.80;;;1.70;;
15931;SDS011;8065;49.520;11.284;2023-07-28T11:11:34;2.00;;;1.90;;
15931;SDS011;8065;49.520;11.284;2023-07-28T11:14:04;1.90;;;1.70;;
15931;SDS011;8065;49.520;11.284;2023-07-28T11:16:37;1.97;;;1.87;;
15931;SDS011;8065;49.520;11.284;2023-07-28T11:19:07;1.70;;;1.70;;
15931;SDS011;8065;49.520;11.284;2023-07-28T11:21:37;1.97;;;1.87;;
15931;SDS011;8065;49.520;11.284;2023-07-28T11:24:06;1.70;;;1.60;;
15931;SDS011;8065;49.520;11.284;2023-07-28T11:26:36;2.00;;;1.90;;
15931;SDS011;8065;49.520;11.284;2023-07-28T11:29:05;1.53;;;1.50;;
15931;SDS011;8065;49.520;11.284;2023-07-28T11:31:34;1.60;;;1.50;;
15931;SDS011;8065;49.520;11.284;2023-07-28T11:34:12;1.37;;;1.37;;
15931;SDS011;8065;49.520;11.284;2023-07-28T11:36:41;1.80;;;1.63;;
15931;SDS011;8065;49.520;11.284;2023-07-28T11:39:09;1.30;;;1.30;;
15931;SDS011;8065;49.520;11.284;2023-07-28T11:41:39;1.47;;;1.43;;
15931;SDS011;8065;49.520;11.284;2023-07-28T11:44:08;1.40;;;1.40;;
15931;SDS011;8065;49.520;11.284;2023-07-28T11:46:40;1.50;;;1.50;;
15931;SDS011;8065;49.520;11.284;2023-07-28T11:49:09;2.50;;;1.80;;
15931;SDS011;8065;49.520;11.284;2023-07-28T11:51:39;2.83;;;1.50;;
15931;SDS011;8065;49.520;11.284;2023-07-28T11:54:10;1.67;;;1.57;;
15931;SDS011;8065;49.520;11.284;2023-07-28T11:56:40;1.60;;;1.50;;
15931;SDS011;8065;49.520;11.284;2023-07-28T11:59:09;1.80;;;1.70;;
15931;SDS011;8065;49.520;11.284;2023-07-28T12:04:25;1.60;;;1.50;;
15931;SDS011;8065;49.520;11.284;2023-07-28T12:07:01;1.53;;;1.40;;
15931;SDS011;8065;49.520;11.284;2023-07-28T12:09:31;1.20;;;1.20;;
15931;SDS011;8065;49.520;11.284;2023-07-28T12:11:59;1.40;;;1.40;;
15931;SDS011;8065;49.520;11.284;2023-07-28T12:14:30;1.43;;;1.40;;
15931;SDS011;8065;49.520;11.284;2023-07-28T12:17:02;1.30;;;1.30;;
15931;SDS011;8065;49.520;11.284;2023-07-28T12:19:30;1.20;;;1.20;;
15931;SDS011;8065;49.520;11.284;2023-07-28T12:21:59;1.43;;;1.30;;
15931;SDS011;8065;49.520;11.284;2023-07-28T12:24:27;1.30;;;1.30;;
15931;SDS011;8065;49.520;11.284;2023-07-28T12:26:55;1.20;;;1.20;;
15931;SDS011;8065;49.520;11.284;2023-07-28T12:29:24;1.70;;;1.20;;
15931;SDS011;8065;49.520;11.284;2023-07-28T12:31:52;1.20;;;1.10;;
15931;SDS011;8065;49.520;11.284;2023-07-28T12:34:23;1.00;;;1.00;;
15931;SDS011;8065;49.520;11.284;2023-07-28T12:36:51;1.63;;;1.27;;
15931;SDS011;8065;49.520;11.284;2023-07-28T12:39:19;1.00;;;1.00;;
15931;SDS011;8065;49.520;11.284;2023-07-28T12:41:48;5.23;;;1.40;;
15931;SDS011;8065;49.520;11.284;2023-07-28T12:44:18;1.50;;;1.40;;
15931;SDS011;8065;49.520;11.284;2023-07-28T12:46:47;1.10;;;1.10;;
15931;SDS011;8065;49.520;11.284;2023-07-28T12:49:15;1.10;;;1.10;;
15931;SDS011;8065;49.520;11.284;2023-07-28T12:51:47;1.00;;;1.00;;
15931;SDS011;8065;49.520;11.284;2023-07-28T12:54:15;1.33;;;1.10;;
15931;SDS011;8065;49.520;11.284;2023-07-28T12:56:44;1.13;;;1.13;;
15931;SDS011;8065;49.520;11.284;2023-07-28T12:59:13;2.10;;;1.10;;
15931;SDS011;8065;49.520;11.284;2023-07-28T13:01:42;1.17;;;1.17;;
15931;SDS011;8065;49.520;11.284;2023-07-28T13:04:10;1.40;;;1.30;;
15931;SDS011;8065;49.520;11.284;2023-07-28T13:06:38;1.20;;;1.20;;
15931;SDS011;8065;49.520;11.284;2023-07-28T13:09:09;2.10;;;2.00;;
15931;SDS011;8065;49.520;11.284;2023-07-28T13:11:38;2.03;;;1.90;;
15931;SDS011;8065;49.520;11.284;2023-07-28T13:14:06;3.10;;;2.17;;
15931;SDS011;8065;49.520;11.284;2023-07-28T13:16:34;1.70;;;1.60;;
15931;SDS011;8065;49.520;11.284;2023-07-28T13:19:03;1.50;;;1.40;;
15931;SDS011;8065;49.520;11.284;2023-07-28T13:21:31;1.50;;;1.23;;
15931;SDS011;8065;49.520;11.284;2023-07-28T13:24:00;1.53;;;1.10;;
15931;SDS011;8065;49.520;11.284;2023-07-28T13:26:30;0.93;;;0.93;;
15931;SDS011;8065;49.520;11.284;2023-07-28T13:28:59;2.67;;;1.33;;
15931;SDS011;8065;49.520;11.284;2023-07-28T13:31:27;1.07;;;1.00;;
15931;SDS011;8065;49.520;11.284;2023-07-28T13:33:56;1.10;;;1.10;;
15931;SDS011;8065;49.520;11.284;2023-07-28T13:36:24;2.47;;;1.10;;
15931;SDS011;8065;49.520;11.284;2023-07-28T13:38:52;1.23;;;1.13;;
15931;SDS011;8065;49.520;11.284;2023-07-28T13:41:21;1.70;;;1.30;;
15931;SDS011;8065;49.520;11.284;2023-07-28T13:43:51;1.30;;;1.10;;
15931;SDS011;8065;49.520;11.284;2023-07-28T13:46:20;1.37;;;1.27;;
15931;SDS011;8065;49.520;11.284;2023-07-28T13:48:48;1.30;;;1.20;;
15931;SDS011;8065;49.520;11.284;2023-07-28T13:51:16;3.00;;;2.50;;
15931;SDS011;8065;49.520;11.284;2023-07-28T13:53:44;2.33;;;2.23;;
15931;SDS011;8065;49.520;11.284;2023-07-28T13:56:13;2.27;;;1.30;;
15931;SDS011;8065;49.520;11.284;2023-07-28T13:58:42;1.27;;;1.10;;
15931;SDS011;8065;49.520;11.284;2023-07-28T14:01:13;0.90;;;0.90;;
15931;SDS011;8065;49.520;11.284;2023-07-28T14:03:41;1.00;;;1.00;;
15931;SDS011;8065;49.520;11.284;2023-07-28T14:06:11;0.80;;;0.80;;
15931;SDS011;8065;49.520;11.284;2023-07-28T14:08:39;0.80;;;0.80;;
15931;SDS011;8065;49.520;11.284;2023-07-28T14:11:07;0.97;;;0.97;;
15931;SDS011;8065;49.520;11.284;2023-07-28T14:13:36;1.30;;;1.30;;
15931;SDS011;8065;49.520;11.284;2023-07-28T14:16:04;2.10;;;1.37;;
15931;SDS011;8065;49.520;11.284;2023-07-28T14:18:37;1.20;;;1.20;;
15931;SDS011;8065;49.520;11.284;2023-07-28T14:21:05;1.67;;;1.00;;
15931;SDS011;8065;49.520;11.284;2023-07-28T14:23:35;1.00;;;1.00;;
15931;SDS011;8065;49.520;11.284;2023-07-28T14:26:03;1.20;;;1.10;;
15931;SDS011;8065;49.520;11.284;2023-07-28T14:28:31;1.43;;;1.30;;
15931;SDS011;8065;49.520;11.284;2023-07-28T14:31:00;1.23;;;1.10;;
15931;SDS011;8065;49.520;11.284;2023-07-28T14:33:28;1.10;;;1.10;;
15931;SDS011;8065;49.520;11.284;2023-07-28T14:35:59;2.20;;;1.20;;
15931;SDS011;8065;49.520;11.284;2023-07-28T14:38:27;1.17;;;1.17;;
15931;SDS011;8065;49.520;11.284;2023-07-28T14:40:56;1.33;;;1.33;;
15931;SDS011;8065;49.520;11.284;2023-07-28T14:43:24;1.40;;;1.30;;
15931;SDS011;8065;49.520;11.284;2023-07-28T14:45:52;1.20;;;1.20;;
15931;SDS011;8065;49.520;11.284;2023-07-28T14:48:21;1.67;;;1.57;;
15931;SDS011;8065;49.520;11.284;2023-07-28T14:50:49;1.50;;;1.50;;
15931;SDS011;8065;49.520;11.284;2023-07-28T14:53:33;1.37;;;1.27;;
15931;SDS011;8065;49.520;11.284;2023-07-28T14:56:03;1.70;;;1.37;;
15931;SDS011;8065;49.520;11.284;2023-07-28T14:58:32;1.50;;;1.40;;
15931;SDS011;8065;49.520;11.284;2023-07-28T15:01:01;1.30;;;1.20;;
15931;SDS011;8065;49.520;11.284;2023-07-28T15:03:30;1.30;;;1.20;;
15931;SDS011;8065;49.520;11.284;2023-07-28T15:05:58;1.50;;;1.40;;
15931;SDS011;8065;49.520;11.284;2023-07-28T15:08:27;1.93;;;1.40;;